Time;durP1;ratioP1;P1;durP2;ratioP2;P2;SDS_P1;SDS_P2;PMS_P1;PMS_P2;Temp;Humidity;BMP_temperature;BMP_pressure;BME280_temperature;BME280_humidity;BME280_pressure;Samples;Min_cycle;Max_cycle;Signal;HPM_P1;HPM_P2
2022/04/14 00:04:37;;;;;;;36.33;16.10;;;;;;;9.61;50.46;100855.76;3492850;84;98993;-77
2022/04/14 00:09:38;;;;;;;25.57;14.05;;;;;;;9.54;50.65;100845.41;3496779;82;98888;-77
2022/04/14 00:14:41;;;;;;;30.30;14.40;;;;;;;9.48;50.87;100843.31;3500406;83;98767;-76
2022/04/14 00:19:43;;;;;;;25.20;13.48;;;;;;;9.41;51.00;100836.27;3504607;83;98750;-78
2022/04/14 00:24:44;;;;;;;25.72;12.47;;;;;;;9.33;51.20;100835.91;3483010;83;98753;-78
2022/04/14 00:29:46;;;;;;;24.97;11.77;;;;;;;9.28;51.56;100827.34;3485947;83;99255;-78
2022/04/14 00:34:48;;;;;;;26.93;13.32;;;;;;;9.23;51.57;100824.91;3477306;82;98911;-78
2022/04/14 00:39:52;;;;;;;29.10;14.73;;;;;;;9.20;51.75;100822.05;3472195;84;99426;-78
2022/04/14 00:44:53;;;;;;;27.98;13.83;;;;;;;9.17;51.93;100821.42;3477326;84;98929;-77
2022/04/14 00:49:55;;;;;;;27.98;13.53;;;;;;;9.15;52.19;100814.09;3482412;85;98682;-78
2022/04/14 00:54:57;;;;;;;27.22;13.70;;;;;;;8.99;52.44;100799.63;3476671;84;99061;-78
2022/04/14 00:59:58;;;;;;;24.67;12.63;;;;;;;8.99;52.44;100799.63;3483981;85;98884;-77
2022/04/14 01:05:00;;;;;;;24.43;13.60;;;;;;;9.11;52.52;100822.25;3432772;83;99157;-77
2022/04/14 01:10:06;;;;;;;28.52;14.60;;;;;;;9.10;52.72;100818.52;3484417;83;99235;-77
2022/04/14 01:15:15;;;;;;;28.60;14.00;;;;;;;9.10;52.75;100817.14;3478954;83;98548;-77
2022/04/14 01:20:18;;;;;;;32.37;17.00;;;;;;;9.10;52.87;100808.91;3484021;83;99114;-76
2022/04/14 01:25:19;;;;;;;25.17;13.62;;;;;;;9.09;53.06;100802.61;3462862;83;99228;-78
2022/04/14 01:30:26;;;;;;;27.30;13.93;;;;;;;9.06;53.29;100792.33;3474888;84;99251;-77
2022/04/14 01:35:25;;;;;;;28.85;14.80;;;;;;;9.04;53.18;100797.95;3497672;81;98896;-77
2022/04/14 01:40:28;;;;;;;30.05;14.85;;;;;;;9.02;53.35;100800.27;3506286;82;99336;-77
2022/04/14 01:45:30;;;;;;;36.25;16.50;;;;;;;8.99;53.39;100801.00;3495688;83;99405;-78
2022/04/14 01:50:32;;;;;;;33.83;17.70;;;;;;;8.94;53.63;100791.08;3476912;84;28534;-78
2022/04/14 01:55:33;;;;;;;28.77;14.73;;;;;;;8.92;53.94;100787.09;3468974;83;98718;-78
2022/04/14 02:00:35;;;;;;;27.90;16.30;;;;;;;8.90;54.00;100790.78;3505775;81;98884;-77
2022/04/14 02:05:39;;;;;;;27.32;14.58;;;;;;;8.88;54.29;100787.02;3467845;82;99251;-78
2022/04/14 02:10:40;;;;;;;32.78;15.70;;;;;;;8.86;54.20;100789.33;3505482;83;98807;-78
2022/04/14 02:15:45;;;;;;;30.45;14.85;;;;;;;8.83;54.33;100790.63;3489932;82;98902;-78
2022/04/14 02:20:47;;;;;;;29.67;15.30;;;;;;;8.79;54.39;100782.28;3503973;82;33512;-77
2022/04/14 02:25:49;;;;;;;24.85;14.60;;;;;;;8.77;54.73;100790.08;3501134;81;99044;-78
2022/04/14 02:30:52;;;;;;;26.05;14.33;;;;;;;8.72;54.90;100778.00;3499312;83;99026;-78
2022/04/14 02:35:54;;;;;;;27.42;15.20;;;;;;;8.71;55.14;100786.58;3494502;82;98750;-77
2022/04/14 02:40:55;;;;;;;29.93;16.23;;;;;;;8.68;55.12;100785.94;3464806;83;98821;-78
2022/04/14 02:45:58;;;;;;;29.42;14.60;;;;;;;8.65;55.29;100783.33;3453756;83;99164;-78
2022/04/14 02:51:00;;;;;;;26.35;13.85;;;;;;;8.62;55.55;100781.28;3467810;84;33265;-77
2022/04/14 02:56:05;;;;;;;28.73;15.17;;;;;;;8.60;55.54;100784.16;3433234;83;99086;-77
2022/04/14 03:01:06;;;;;;;27.27;15.07;;;;;;;8.55;55.65;100777.56;3471279;83;99179;-77
2022/04/14 03:06:08;;;;;;;30.32;15.58;;;;;;;8.53;55.75;100772.45;3464459;82;98944;-77
2022/04/14 03:11:12;;;;;;;29.52;16.23;;;;;;;8.51;55.84;100776.70;3499311;83;98874;-77
2022/04/14 03:16:14;;;;;;;33.70;18.60;;;;;;;8.47;56.17;100776.63;3464205;83;98968;-77
2022/04/14 03:21:18;;;;;;;38.83;20.77;;;;;;;8.44;56.29;100764.98;3497290;83;33744;-78
2022/04/14 03:26:23;;;;;;;35.40;18.87;;;;;;;8.42;56.50;100760.43;3483366;83;98777;-78
2022/04/14 03:31:30;;;;;;;;;;;;;;;8.41;56.68;100764.30;3469741;82;98729;-78
2022/04/14 03:36:33;;;;;;;29.02;15.88;;;;;;;8.41;57.52;100764.30;3480376;83;84852;-78
2022/04/14 03:41:35;;;;;;;26.02;15.35;;;;;;;8.41;57.19;100762.92;3485737;83;99168;-78
2022/04/14 03:46:37;;;;;;;27.83;13.63;;;;;;;8.42;57.02;100763.73;3459826;83;98933;-77
2022/04/14 03:51:44;;;;;;;32.35;15.90;;;;;;;8.43;57.09;100764.76;3442812;82;99111;-78
2022/04/14 03:56:48;;;;;;;29.97;15.47;;;;;;;8.44;57.18;100760.86;3479151;83;98889;-78
2022/04/14 04:01:47;;;;;;;26.42;15.10;;;;;;;8.45;57.29;100765.19;3465761;84;98747;-78
2022/04/14 04:06:48;;;;;;;28.77;15.87;;;;;;;8.46;57.24;100760.52;3482703;82;99293;-77
2022/04/14 04:11:50;;;;;;;28.60;14.83;;;;;;;8.46;57.68;100761.88;3487850;84;99180;-77
2022/04/14 04:16:51;;;;;;;31.67;16.00;;;;;;;8.45;57.54;100761.67;3483075;83;98919;-78
2022/04/14 04:21:51;;;;;;;30.57;16.23;;;;;;;8.41;57.63;100760.18;3465345;83;98918;-77
2022/04/14 04:26:52;;;;;;;28.77;16.17;;;;;;;8.41;57.66;100760.78;3464888;84;98808;-78
2022/04/14 04:31:53;;;;;;;30.27;16.60;;;;;;;8.39;57.69;100766.61;3462892;84;98775;-77
2022/04/14 04:36:54;;;;;;;27.47;16.97;;;;;;;8.40;57.90;100767.42;3459116;85;98955;-78
2022/04/14 04:41:55;;;;;;;31.60;18.83;;;;;;;8.40;57.90;100757.82;3460790;85;99294;-77
2022/04/14 04:46:56;;;;;;;29.17;16.30;;;;;;;8.42;58.00;100754.13;3435275;83;99176;-78
2022/04/14 04:51:59;;;;;;;28.87;15.63;;;;;;;8.43;58.09;100762.58;3454468;83;99319;-77
2022/04/14 04:56:59;;;;;;;39.18;17.87;;;;;;;8.46;58.32;100767.38;3443903;83;99030;-79
2022/04/14 05:02:00;;;;;;;32.00;16.70;;;;;;;8.49;58.14;100763.34;3463655;83;99136;-76
2022/04/14 05:07:01;;;;;;;28.65;16.12;;;;;;;8.54;58.22;100767.75;3463382;83;99010;-78
2022/04/14 05:12:03;;;;;;;30.97;17.80;;;;;;;8.60;58.18;100775.37;3463115;83;99210;-75
2022/04/14 05:17:05;;;;;;;34.60;17.63;;;;;;;8.69;58.28;100764.20;3459582;83;99305;-76
2022/04/14 05:22:06;;;;;;;34.63;19.00;;;;;;;8.79;58.33;100759.55;3467005;85;98848;-75
2022/04/14 05:27:07;;;;;;;32.37;18.97;;;;;;;8.89;58.21;100752.14;3482981;84;98846;-76
2022/04/14 05:32:09;;;;;;;30.93;18.57;;;;;;;9.02;58.33;100754.41;3492804;83;99161;-76
2022/04/14 05:37:10;;;;;;;33.97;19.07;;;;;;;9.18;58.43;100745.55;3489304;83;98846;-76
2022/04/14 05:42:11;;;;;;;34.30;17.07;;;;;;;9.39;58.34;100750.69;3471264;83;99242;-76
2022/04/14 05:47:12;;;;;;;32.90;19.80;;;;;;;9.61;58.07;100741.16;3486653;83;98996;-76
2022/04/14 05:52:13;;;;;;;32.03;19.03;;;;;;;9.89;57.72;100741.69;3494123;82;99292;-76
2022/04/14 05:57:15;;;;;;;35.57;19.03;;;;;;;10.17;57.55;100737.30;3488426;83;98957;-75
2022/04/14 06:02:17;;;;;;;48.00;19.67;;;;;;;10.46;56.85;100747.64;3493429;83;99008;-76
2022/04/14 06:07:18;;;;;;;35.47;19.83;;;;;;;10.75;56.61;100746.31;3487285;83;99531;-75
2022/04/14 06:12:19;;;;;;;33.53;19.27;;;;;;;11.04;56.42;100742.84;3493764;83;99639;-76
2022/04/14 06:17:20;;;;;;;42.63;20.90;;;;;;;11.32;55.59;100739.66;3488641;83;99531;-76
2022/04/14 06:22:21;;;;;;;36.77;20.10;;;;;;;11.52;55.22;100733.63;3493630;83;99455;-76
2022/04/14 06:27:21;;;;;;;36.87;19.27;;;;;;;11.74;55.08;100728.60;3465773;84;99350;-76
2022/04/14 06:32:22;;;;;;;34.50;19.87;;;;;;;11.97;54.64;100720.16;3491843;81;99398;-75
2022/04/14 06:37:23;;;;;;;40.20;22.03;;;;;;;12.15;54.29;100718.38;3481828;82;99119;-77
2022/04/14 06:42:24;;;;;;;32.23;19.75;;;;;;;12.32;54.15;100716.36;3484228;83;99208;-77
2022/04/14 06:47:28;;;;;;;33.15;19.65;;;;;;;12.48;53.60;100718.27;3478215;83;99252;-76
2022/04/14 06:52:29;;;;;;;36.58;21.25;;;;;;;12.64;53.41;100709.13;3484911;82;99203;-75
2022/04/14 06:57:30;;;;;;;38.80;21.77;;;;;;;12.80;52.83;100711.80;3487331;83;98964;-76
2022/04/14 07:02:31;;;;;;;36.03;21.60;;;;;;;12.92;52.49;100712.08;3488437;82;98943;-77
2022/04/14 07:07:32;;;;;;;36.97;22.37;;;;;;;13.04;52.43;100719.45;3483320;83;99715;-76
2022/04/14 07:12:33;;;;;;;40.63;23.10;;;;;;;13.18;52.49;100718.73;3489825;83;99254;-77
2022/04/14 07:17:36;;;;;;;46.07;22.27;;;;;;;13.29;51.80;100717.63;3485534;83;99309;-76
2022/04/14 07:22:52;;;;;;;39.93;22.23;;;;;;;13.37;51.78;100719.26;3492464;83;99215;-74
2022/04/14 07:27:53;;;;;;;34.73;19.12;;;;;;;13.53;52.20;100714.77;3494874;83;102069;-77
2022/04/14 07:32:55;;;;;;;45.80;21.17;;;;;;;13.72;51.75;100711.66;3507196;83;33177;-74
2022/04/14 07:37:56;;;;;;;43.10;21.43;;;;;;;13.91;51.82;100706.56;3497309;83;99010;-75
2022/04/14 07:42:57;;;;;;;41.20;23.50;;;;;;;14.12;51.64;100709.37;3444999;83;99863;-75
2022/04/14 07:47:58;;;;;;;37.63;21.43;;;;;;;14.34;51.55;100711.60;3497788;82;99636;-76
2022/04/14 07:52:59;;;;;;;42.40;20.85;;;;;;;14.56;51.26;100712.57;3507619;83;99293;-76
2022/04/14 07:58:08;;;;;;;35.75;20.88;;;;;;;14.78;51.14;100707.81;3499587;83;99167;-76
2022/04/14 08:03:07;;;;;;;37.83;20.40;;;;;;;15.03;51.16;100707.95;3507276;83;25809;-76
2022/04/14 08:08:12;;;;;;;38.00;21.17;;;;;;;15.29;50.23;100713.03;3496596;83;99620;-77
2022/04/14 08:13:14;;;;;;;38.95;21.02;;;;;;;15.53;49.70;100712.16;3509159;83;99451;-77
2022/04/14 08:18:15;;;;;;;40.20;20.25;;;;;;;15.74;49.33;100709.88;3491635;83;99609;-76
2022/04/14 08:23:17;;;;;;;35.43;19.25;;;;;;;15.98;49.44;100712.50;3456702;83;99640;-76
2022/04/14 08:28:18;;;;;;;29.92;17.20;;;;;;;16.27;49.25;100718.08;3463455;81;99135;-76
2022/04/14 08:33:20;;;;;;;35.63;17.60;;;;;;;16.68;49.40;100709.20;3469019;85;33892;-76
2022/04/14 08:38:22;;;;;;;33.55;16.73;;;;;;;17.24;48.48;100707.25;3460941;85;99454;-77
2022/04/14 08:43:33;;;;;;;32.40;17.62;;;;;;;17.82;47.68;100704.13;3467416;82;99124;-76
2022/04/14 08:48:35;;;;;;;30.12;17.40;;;;;;;18.45;46.71;100699.02;3455815;84;99628;-76
2022/04/14 08:53:38;;;;;;;31.15;17.37;;;;;;;19.08;46.21;100701.27;3458807;84;99258;-76
2022/04/14 08:58:42;;;;;;;33.48;18.90;;;;;;;19.91;46.04;100697.35;3457735;83;99227;-77
2022/04/14 09:03:44;;;;;;;34.43;18.47;;;;;;;20.72;44.94;100699.59;3469699;83;99605;-77
2022/04/14 09:08:46;;;;;;;31.17;18.65;;;;;;;21.21;43.50;100696.89;3443511;84;98836;-78
2022/04/14 09:13:47;;;;;;;34.10;19.62;;;;;;;21.62;42.96;100689.88;3466024;85;99475;-78
2022/04/14 09:18:48;;;;;;;30.17;18.60;;;;;;;22.28;41.09;100685.64;3459347;83;99511;-77
2022/04/14 09:23:52;;;;;;;32.08;18.80;;;;;;;22.50;40.67;100682.34;3464821;83;99628;-79
2022/04/14 09:29:07;;;;;;;33.30;18.55;;;;;;;22.91;39.28;100684.90;3480003;82;99230;-78
2022/04/14 09:34:08;;;;;;;30.72;17.02;;;;;;;23.30;39.47;100681.50;3475049;82;99331;-78
2022/04/14 09:39:09;;;;;;;29.72;16.95;;;;;;;23.82;39.44;100676.66;3487542;82;34879;-78
2022/04/14 09:44:13;;;;;;;28.00;15.93;;;;;;;24.51;38.71;100669.45;3471688;82;99231;-76
2022/04/14 09:49:16;;;;;;;27.82;15.68;;;;;;;25.14;38.21;100663.91;3477281;82;99209;-76
2022/04/14 09:54:20;;;;;;;28.32;16.50;;;;;;;25.69;36.89;100664.61;3480216;82;99623;-78
2022/04/14 09:59:24;;;;;;;27.77;15.18;;;;;;;26.12;36.66;100661.34;3464098;82;99609;-76
2022/04/14 10:04:38;;;;;;;31.23;17.57;;;;;;;26.39;36.06;100656.34;3497756;82;99244;-76
2022/04/14 10:09:42;;;;;;;31.42;18.15;;;;;;;26.57;34.44;100660.48;3498858;82;99253;-78
2022/04/14 10:15:01;;;;;;;31.15;18.55;;;;;;;26.28;33.50;100655.30;3500409;82;99183;-76
2022/04/14 10:20:09;;;;;;;32.50;19.02;;;;;;;25.95;34.93;100658.14;3499666;82;99085;-76
2022/04/14 10:25:12;;;;;;;34.25;19.48;;;;;;;26.75;34.97;100644.05;3495562;81;99125;-76
2022/04/14 10:30:16;;;;;;;31.40;20.00;;;;;;;26.82;34.57;100645.09;3456139;83;99868;-76
2022/04/14 10:35:18;;;;;;;32.75;20.80;;;;;;;27.08;33.39;100646.13;3462776;83;99232;-76
2022/04/14 10:40:20;;;;;;;31.73;18.67;;;;;;;27.02;33.12;100647.42;3476525;83;99672;-76
2022/04/14 10:45:23;;;;;;;28.30;16.95;;;;;;;27.15;34.02;100635.23;3463448;83;99066;-75
2022/04/14 10:50:34;;;;;;;30.88;18.32;;;;;;;27.40;34.14;100635.33;3463043;82;98971;-76
2022/04/14 10:55:40;;;;;;;30.97;18.37;;;;;;;27.56;33.39;100633.41;3459001;83;99491;-75
2022/04/14 11:00:42;;;;;;;34.48;19.32;;;;;;;27.46;32.28;100633.37;3458019;83;99591;-77
2022/04/14 11:05:50;;;;;;;26.80;17.15;;;;;;;27.30;31.88;100644.52;3447859;83;99669;-75
2022/04/14 11:11:09;;;;;;;29.92;18.90;;;;;;;27.03;33.23;100631.27;3468881;84;99225;-77
2022/04/14 11:16:47;;;;;;;34.33;19.95;;;;;;;27.08;32.37;100637.00;3446193;83;100005;-75
2022/04/14 11:22:12;;;;;;;31.17;18.67;;;;;;;26.70;31.89;100641.89;3466331;83;98623;-76
2022/04/14 11:27:24;;;;;;;31.17;20.17;;;;;;;26.57;32.35;100649.19;3461444;84;99027;-76
2022/04/14 11:32:40;;;;;;;33.07;18.80;;;;;;;26.23;32.40;100642.64;3459597;83;99600;-76
2022/04/14 11:37:43;;;;;;;29.63;17.62;;;;;;;25.99;32.89;100631.92;3455902;83;99047;-76
2022/04/14 11:42:50;;;;;;;28.45;16.32;;;;;;;26.02;33.31;100634.42;3466087;84;99898;-76
2022/04/14 11:47:59;;;;;;;29.90;18.90;;;;;;;25.71;33.24;100631.09;3462069;83;99309;-77
2022/04/14 11:53:02;;;;;;;28.45;16.23;;;;;;;25.59;32.53;100625.00;3469242;85;99608;-76
2022/04/14 11:58:06;;;;;;;29.25;17.07;;;;;;;25.33;32.54;100630.24;3453325;83;99209;-75
2022/04/14 12:03:08;;;;;;;35.88;19.15;;;;;;;25.03;32.60;100625.58;3469049;85;26277;-76
2022/04/14 12:08:11;;;;;;;25.55;14.75;;;;;;;25.01;32.97;100629.47;3456477;83;99096;-76
2022/04/14 12:13:12;;;;;;;31.23;16.35;;;;;;;24.99;33.81;100624.94;3469573;83;99046;-76
2022/04/14 12:18:14;;;;;;;29.57;17.32;;;;;;;24.97;33.29;100625.26;3467243;83;99891;-77
2022/04/14 12:23:15;;;;;;;31.42;16.62;;;;;;;24.72;32.70;100629.78;3470619;83;99270;-76
2022/04/14 12:28:16;;;;;;;29.95;17.70;;;;;;;24.49;33.64;100624.12;3471951;83;99569;-76
2022/04/14 12:33:31;;;;;;;28.98;16.80;;;;;;;24.28;33.39;100617.19;3495314;83;34818;-76
2022/04/14 12:38:29;;;;;;;32.48;17.15;;;;;;;24.18;34.19;100622.02;3489114;83;99108;-75
2022/04/14 12:43:40;;;;;;;33.28;19.60;;;;;;;24.09;34.97;100616.35;3490996;83;99482;-76
2022/04/14 12:48:41;;;;;;;34.53;20.02;;;;;;;24.09;36.06;100619.17;3480029;83;99576;-76
2022/04/14 12:53:42;;;;;;;37.93;19.73;;;;;;;24.11;36.18;100609.66;3481768;83;99707;-76
2022/04/14 12:59:11;;;;;;;33.70;18.62;;;;;;;24.11;36.71;100620.11;3482471;83;99180;-76
2022/04/14 13:04:13;;;;;;;33.78;19.23;;;;;;;24.03;36.34;100606.20;3480702;83;99387;-76
2022/04/14 13:09:16;;;;;;;37.38;20.88;;;;;;;23.90;37.37;100612.55;3494661;83;34889;-76
2022/04/14 13:14:27;;;;;;;36.23;20.45;;;;;;;24.02;37.86;100601.80;3485967;83;99542;-76
2022/04/14 13:19:29;;;;;;;33.28;21.12;;;;;;;24.15;38.14;100606.05;3494340;84;99033;-76
2022/04/14 13:24:30;;;;;;;36.50;19.50;;;;;;;24.06;38.28;100601.03;3486162;83;99659;-77
2022/04/14 13:29:31;;;;;;;29.00;17.48;;;;;;;23.99;38.49;100606.35;3491790;83;99309;-76
2022/04/14 13:34:32;;;;;;;35.85;18.62;;;;;;;23.84;38.31;100613.76;3486151;83;99551;-76
2022/04/14 13:39:33;;;;;;;28.87;16.42;;;;;;;23.74;38.34;100601.52;3487081;83;35439;-75
2022/04/14 13:44:34;;;;;;;26.65;16.15;;;;;;;23.73;38.72;100595.12;3486445;84;99394;-76
2022/04/14 13:49:35;;;;;;;29.15;15.25;;;;;;;23.81;38.42;100603.42;3491579;83;99486;-76
2022/04/14 13:54:35;;;;;;;24.80;14.60;;;;;;;23.70;38.03;100604.47;3486622;84;99151;-76
2022/04/14 13:59:37;;;;;;;24.37;12.70;;;;;;;23.58;37.84;100601.75;3492058;84;99533;-76
2022/04/14 14:04:38;;;;;;;26.85;14.70;;;;;;;23.49;38.04;100595.47;3486291;83;99414;-76
2022/04/14 14:09:39;;;;;;;24.63;13.18;;;;;;;23.46;38.21;100584.38;3486383;84;99718;-75
2022/04/14 14:14:40;;;;;;;24.92;13.20;;;;;;;23.42;38.09;100593.55;3484197;83;99419;-75
2022/04/14 14:19:40;;;;;;;23.98;12.03;;;;;;;23.34;38.69;100592.28;3464872;83;99540;-76
2022/04/14 14:24:41;;;;;;;26.27;13.88;;;;;;;23.38;38.91;100594.34;3478859;82;99679;-76
2022/04/14 14:29:45;;;;;;;28.65;15.65;;;;;;;23.41;38.87;100597.00;3476172;83;99158;-75
2022/04/14 14:34:45;;;;;;;29.12;15.08;;;;;;;23.34;38.75;100585.25;3458258;83;99695;-76
2022/04/14 14:39:46;;;;;;;27.40;14.00;;;;;;;23.15;39.05;100573.09;3459068;83;99151;-76
2022/04/14 14:44:47;;;;;;;29.65;18.30;;;;;;;23.06;39.34;100585.66;3459912;83;99435;-76
2022/04/14 14:49:48;;;;;;;31.17;19.90;;;;;;;22.97;39.59;100598.86;3457568;83;99064;-76
2022/04/14 14:54:49;;;;;;;29.42;17.52;;;;;;;22.78;39.93;100607.76;3460366;85;99539;-76
2022/04/14 14:59:51;;;;;;;26.45;16.32;;;;;;;22.61;39.86;100616.83;3470013;83;99716;-76
2022/04/14 15:04:54;;;;;;;23.40;14.03;;;;;;;22.34;39.78;100626.35;3463143;83;99169;-76
2022/04/14 15:09:56;;;;;;;20.00;12.65;;;;;;;22.02;40.53;100626.62;3464709;85;99663;-77
2022/04/14 15:14:57;;;;;;;20.12;11.15;;;;;;;22.00;40.91;100628.46;3463217;84;99088;-77
2022/04/14 15:19:58;;;;;;;22.02;11.80;;;;;;;21.80;41.16;100627.13;3469648;84;98976;-77
2022/04/14 15:24:59;;;;;;;20.32;11.88;;;;;;;21.61;41.75;100625.28;3461476;84;99396;-77
2022/04/14 15:30:00;;;;;;;17.05;10.40;;;;;;;21.40;41.60;100628.13;3470646;83;99245;-76
2022/04/14 15:35:01;;;;;;;22.55;15.50;;;;;;;21.20;42.15;100641.50;3461471;83;99375;-76
2022/04/14 15:40:05;;;;;;;16.70;11.65;;;;;;;21.05;42.18;100633.36;3467202;83;99163;-76
2022/04/14 15:45:08;;;;;;;14.23;9.03;;;;;;;20.86;42.83;100651.04;3458631;84;99195;-76
2022/04/14 15:50:09;;;;;;;13.75;7.35;;;;;;;20.86;43.62;100653.84;3467270;85;98807;-76
2022/04/14 15:55:10;;;;;;;10.68;6.30;;;;;;;20.70;44.10;100658.06;3459976;84;98921;-76
2022/04/14 16:00:15;;;;;;;14.55;6.35;;;;;;;20.59;44.45;100657.56;3446085;85;99106;-77
2022/04/14 16:05:15;;;;;;;11.05;6.50;;;;;;;20.54;44.77;100659.48;3458564;83;99388;-76
2022/04/14 16:15:36;;;;;;;12.85;7.22;;;;;;;20.45;45.58;100662.73;3464405;83;99262;-75
2022/04/14 16:20:37;;;;;;;15.80;7.62;;;;;;;20.31;45.13;100659.69;3467383;85;99443;-76
2022/04/14 16:25:38;;;;;;;13.40;7.45;;;;;;;20.18;45.46;100659.42;3458251;84;99218;-75
2022/04/14 16:30:39;;;;;;;16.55;8.10;;;;;;;19.99;45.82;100661.03;3489337;83;99105;-76
2022/04/14 16:35:40;;;;;;;11.63;6.67;;;;;;;19.97;46.51;100663.48;3492910;84;99385;-76
2022/04/14 16:40:41;;;;;;;15.65;8.25;;;;;;;19.94;47.07;100662.95;3499053;84;99000;-75
2022/04/14 16:45:43;;;;;;;14.65;7.75;;;;;;;19.88;46.98;100670.87;3462602;84;99228;-76
2022/04/14 16:50:44;;;;;;;12.20;7.15;;;;;;;19.83;47.48;100672.81;3500508;83;31349;-75
2022/04/14 16:55:48;;;;;;;20.10;12.75;;;;;;;19.79;47.82;100672.09;3489806;84;99327;-75
2022/04/14 17:00:48;;;;;;;13.20;6.50;;;;;;;19.76;48.21;100682.72;3468487;84;99348;-76
2022/04/14 17:05:49;;;;;;;6.33;3.27;;;;;;;19.53;48.28;100684.23;3492262;83;99427;-76
2022/04/14 17:10:50;;;;;;;7.87;4.15;;;;;;;19.26;49.17;100696.16;3499649;84;98781;-76
2022/04/14 17:15:51;;;;;;;5.92;2.90;;;;;;;19.09;49.78;100704.24;3489990;84;99287;-76
2022/04/14 17:20:54;;;;;;;10.88;4.62;;;;;;;18.87;50.57;100709.44;3500782;84;29161;-76
2022/04/14 17:25:55;;;;;;;7.17;3.15;;;;;;;18.64;51.50;100714.23;3492660;84;98896;-76
2022/04/14 17:30:56;;;;;;;5.37;2.83;;;;;;;18.49;51.88;100719.27;3494715;84;99293;-76
2022/04/14 17:35:57;;;;;;;10.10;4.20;;;;;;;18.31;52.53;100720.73;3486268;83;99498;-76
2022/04/14 17:40:58;;;;;;;11.20;4.95;;;;;;;17.92;53.63;100692.68;3492799;84;98986;-76
2022/04/14 17:45:59;;;;;;;11.55;5.28;;;;;;;17.97;54.27;100731.17;3485875;84;99073;-76
2022/04/14 17:51:00;;;;;;;13.68;6.92;;;;;;;17.82;55.31;100743.11;3493956;83;28639;-76
2022/04/14 17:56:01;;;;;;;13.72;6.90;;;;;;;17.62;56.33;100743.59;3476282;83;98983;-75
2022/04/14 18:01:02;;;;;;;16.20;9.28;;;;;;;17.46;57.67;100750.94;3492626;83;98858;-75
2022/04/14 18:06:03;;;;;;;21.02;12.15;;;;;;;17.36;58.11;100751.81;3482636;84;99198;-76
2022/04/14 18:11:05;;;;;;;20.15;11.35;;;;;;;17.24;59.09;100755.94;3492844;83;99170;-76
2022/04/14 18:16:05;;;;;;;19.20;12.40;;;;;;;17.12;60.16;100764.00;3485758;83;99605;-76
2022/04/14 18:21:09;;;;;;;19.83;13.67;;;;;;;17.02;60.61;100761.53;3493814;83;25760;-76
2022/04/14 18:26:10;;;;;;;21.12;13.43;;;;;;;16.88;61.92;100760.84;3486570;83;99305;-76
2022/04/14 18:31:11;;;;;;;24.43;14.30;;;;;;;16.72;62.72;100760.59;3476701;83;99021;-76
2022/04/14 18:36:12;;;;;;;20.85;13.35;;;;;;;16.61;63.25;100767.64;3470457;84;99217;-77
2022/04/14 18:41:14;;;;;;;17.30;11.23;;;;;;;16.52;63.93;100765.14;3479189;84;99280;-77
2022/04/14 18:46:15;;;;;;;19.25;12.47;;;;;;;16.47;64.30;100758.02;3467489;83;99613;-76
2022/04/14 18:51:16;;;;;;;17.77;11.70;;;;;;;16.42;64.29;100772.95;3476675;83;27084;-77
2022/04/14 18:56:17;;;;;;;19.23;13.45;;;;;;;16.36;65.18;100781.50;3463239;83;99288;-77
2022/04/14 19:01:19;;;;;;;23.05;14.05;;;;;;;16.29;65.64;100782.94;3477840;83;99022;-78
2022/04/14 19:06:20;;;;;;;21.27;13.55;;;;;;;16.13;66.94;100784.03;3471098;84;99549;-78
2022/04/14 19:11:21;;;;;;;20.27;13.07;;;;;;;15.99;67.97;100785.48;3588161;80;99163;-78
2022/04/14 19:16:21;;;;;;;24.00;14.20;;;;;;;15.94;67.99;100797.81;3573546;80;99590;-79
2022/04/14 19:21:23;;;;;;;23.60;14.95;;;;;;;15.87;69.27;100828.97;3582507;80;25880;-79
2022/04/14 19:26:24;;;;;;;18.77;11.20;;;;;;;15.66;71.38;100813.20;3580413;80;99495;-78
2022/04/14 19:31:25;;;;;;;18.03;10.07;;;;;;;15.34;73.03;100816.66;3572397;81;99013;-78
2022/04/14 19:36:28;;;;;;;14.93;9.00;;;;;;;15.07;73.40;100818.25;3555235;81;99597;-78
2022/04/14 19:41:29;;;;;;;16.00;8.40;;;;;;;14.97;73.17;100830.13;3557507;81;99443;-78
2022/04/14 19:46:30;;;;;;;15.30;7.87;;;;;;;14.87;73.06;100828.14;3557475;81;99361;-78
2022/04/14 19:51:31;;;;;;;14.43;8.20;;;;;;;14.80;73.15;100806.56;3565224;81;30350;-78
2022/04/14 19:56:33;;;;;;;16.13;9.90;;;;;;;14.79;73.42;100817.45;3533097;82;99172;-79
2022/04/14 20:01:34;;;;;;;13.40;7.30;;;;;;;14.71;74.17;100823.59;3567545;81;98789;-79
2022/04/14 20:06:35;;;;;;;10.65;5.40;;;;;;;14.56;74.16;100812.29;3561468;81;99390;-79
2022/04/14 20:11:37;;;;;;;9.03;4.67;;;;;;;14.49;73.67;100817.05;3566214;81;99355;-79
2022/04/14 20:16:37;;;;;;;9.57;4.90;;;;;;;14.41;73.57;100817.63;3560945;80;99046;-80
2022/04/14 20:21:38;;;;;;;10.63;5.50;;;;;;;14.35;73.59;100821.17;3569208;81;33143;-81
2022/04/14 20:26:40;;;;;;;9.18;4.83;;;;;;;14.26;73.97;100815.20;3560566;81;98974;-79
2022/04/14 20:31:41;;;;;;;12.07;6.10;;;;;;;14.17;73.43;100828.02;3566950;81;98582;-80
2022/04/14 20:36:42;;;;;;;13.63;7.90;;;;;;;14.08;74.31;100823.45;3564333;81;99025;-79
2022/04/14 20:41:43;;;;;;;13.13;6.75;;;;;;;13.96;74.90;100825.17;3568982;82;99059;-80
2022/04/14 20:46:44;;;;;;;13.50;7.75;;;;;;;13.89;74.78;100824.38;3561880;81;98933;-79
2022/04/14 20:51:45;;;;;;;16.70;9.37;;;;;;;13.83;74.98;100824.52;3564286;81;98922;-80
2022/04/14 20:56:46;;;;;;;17.05;9.20;;;;;;;13.69;76.24;100821.10;3532980;81;98904;-80
2022/04/14 21:01:48;;;;;;;15.17;9.63;;;;;;;13.64;76.00;100836.72;3566093;81;98921;-80
2022/04/14 21:06:48;;;;;;;18.07;10.95;;;;;;;13.50;77.50;100827.52;3561021;81;99346;-80
2022/04/14 21:11:49;;;;;;;16.17;10.60;;;;;;;13.42;77.24;100828.06;3567073;81;99331;-80
2022/04/14 21:16:51;;;;;;;17.23;10.43;;;;;;;13.39;77.17;100843.26;3559588;81;99344;-80
2022/04/14 21:21:59;;;;;;;19.93;12.50;;;;;;;13.20;78.21;100837.41;3568301;81;99218;-80
2022/04/14 21:27:03;;;;;;;21.85;14.15;;;;;;;12.93;79.55;100840.13;3551570;81;99268;-79
2022/04/14 21:32:05;;;;;;;23.15;12.45;;;;;;;12.93;79.55;100840.13;3578256;80;99466;-79
2022/04/14 21:37:06;;;;;;;25.05;15.00;;;;;;;12.87;79.47;100843.05;3580342;80;99248;-79
2022/04/14 21:42:07;;;;;;;23.63;13.77;;;;;;;12.82;79.91;100834.33;3587007;80;99229;-79
2022/04/14 21:47:08;;;;;;;25.83;16.03;;;;;;;12.68;80.63;100835.00;3581586;80;99506;-79
2022/04/14 21:52:09;;;;;;;26.67;16.50;;;;;;;12.59;81.54;100842.80;3573295;80;99612;-79
2022/04/14 21:57:10;;;;;;;24.40;13.70;;;;;;;12.48;81.13;100843.89;3575502;80;99402;-79
2022/04/14 22:02:12;;;;;;;26.70;15.60;;;;;;;12.46;80.84;100837.92;3588017;80;99469;-79
2022/04/14 22:07:13;;;;;;;23.97;13.43;;;;;;;12.38;82.12;100837.06;3560596;80;98999;-79
2022/04/14 22:12:14;;;;;;;22.70;12.17;;;;;;;12.29;82.31;100839.92;3586445;80;99547;-79
2022/04/14 22:17:15;;;;;;;22.23;12.13;;;;;;;11.93;82.58;100815.89;3581618;80;99224;-79
2022/04/14 22:22:16;;;;;;;20.70;11.53;;;;;;;11.93;82.58;100815.89;3586547;80;99133;-79
2022/04/14 22:27:17;;;;;;;20.80;11.27;;;;;;;12.03;81.83;100829.80;3582029;80;98991;-79
2022/04/14 22:32:18;;;;;;;20.43;11.40;;;;;;;11.96;82.29;100824.77;3578098;80;98974;-79
2022/04/14 22:37:19;;;;;;;18.53;11.50;;;;;;;11.85;82.73;100820.52;3562216;81;100531;-79
2022/04/14 22:42:20;;;;;;;21.33;11.65;;;;;;;11.75;82.61;100823.13;3569638;81;99798;-79
2022/04/14 22:47:21;;;;;;;20.95;11.85;;;;;;;11.66;82.50;100830.91;3559309;81;99141;-79
2022/04/14 22:52:22;;;;;;;19.80;11.63;;;;;;;11.56;82.83;100820.50;3566690;81;99197;-79
2022/04/14 22:57:23;;;;;;;18.20;10.70;;;;;;;11.49;83.19;100827.28;3562150;81;98791;-79
2022/04/14 23:02:24;;;;;;;21.70;12.90;;;;;;;11.46;83.70;100825.28;3567897;81;98996;-79
2022/04/14 23:07:25;;;;;;;22.83;12.00;;;;;;;11.44;85.88;100817.98;3562398;81;98934;-79